Map

Track Data

SID SEASON NUMBER BASIN SUBBASIN NAME ISO_TIME NATURE LAT LON WMO_WIND WMO_PRES WMO_AGENCY TRACK_TYPE DIST2LAND LANDFALL IFLAG USA_AGENCY USA_ATCF_ID USA_LAT USA_LON USA_RECORD USA_STATUS USA_WIND USA_PRES USA_SSHS USA_R34_NE USA_R34_SE USA_R34_SW USA_R34_NW USA_R50_NE USA_R50_SE USA_R50_SW USA_R50_NW USA_R64_NE USA_R64_SE USA_R64_SW USA_R64_NW USA_POCI USA_ROCI USA_RMW USA_EYE TOKYO_LAT TOKYO_LON TOKYO_GRADE TOKYO_WIND TOKYO_PRES TOKYO_R50_DIR TOKYO_R50_LONG TOKYO_R50_SHORT TOKYO_R30_DIR TOKYO_R30_LONG TOKYO_R30_SHORT TOKYO_LAND CMA_LAT CMA_LON CMA_CAT CMA_WIND CMA_PRES HKO_LAT HKO_LON HKO_CAT HKO_WIND HKO_PRES NEWDELHI_LAT NEWDELHI_LON NEWDELHI_GRADE NEWDELHI_WIND NEWDELHI_PRES NEWDELHI_CI NEWDELHI_DP NEWDELHI_POCI REUNION_LAT REUNION_LON REUNION_TYPE REUNION_WIND REUNION_PRES REUNION_TNUM REUNION_CI REUNION_RMW REUNION_R34_NE REUNION_R34_SE REUNION_R34_SW REUNION_R34_NW REUNION_R50_NE REUNION_R50_SE REUNION_R50_SW REUNION_R50_NW REUNION_R64_NE REUNION_R64_SE REUNION_R64_SW REUNION_R64_NW BOM_LAT BOM_LON BOM_TYPE BOM_WIND BOM_PRES BOM_TNUM BOM_CI BOM_RMW BOM_R34_NE BOM_R34_SE BOM_R34_SW BOM_R34_NW BOM_R50_NE BOM_R50_SE BOM_R50_SW BOM_R50_NW BOM_R64_NE BOM_R64_SE BOM_R64_SW BOM_R64_NW BOM_ROCI BOM_POCI BOM_EYE BOM_POS_METHOD BOM_PRES_METHOD NADI_LAT NADI_LON NADI_CAT NADI_WIND NADI_PRES WELLINGTON_LAT WELLINGTON_LON WELLINGTON_WIND WELLINGTON_PRES DS824_LAT DS824_LON DS824_STAGE DS824_WIND DS824_PRES TD9636_LAT TD9636_LON TD9636_STAGE TD9636_WIND TD9636_PRES TD9635_LAT TD9635_LON TD9635_WIND TD9635_PRES TD9635_ROCI NEUMANN_LAT NEUMANN_LON NEUMANN_CLASS NEUMANN_WIND NEUMANN_PRES MLC_LAT MLC_LON MLC_CLASS MLC_WIND MLC_PRES USA_GUST BOM_GUST BOM_GUST_PER REUNION_GUST REUNION_GUST_PER USA_SEAHGT USA_SEARAD_NE USA_SEARAD_SE USA_SEARAD_SW USA_SEARAD_NW STORM_SPEED STORM_DIR
1864296N29288 1864 20 NA NA NOT_NAMED 1864-10-22 00:00:00 TS 28.5000 -72.0000 50 hurdat_atl main 705 703 O_____________ hurdat_atl AL051864 28.5000 -72.0000 TS 50 0 12 330
1864296N29288 1864 20 NA NA NOT_NAMED 1864-10-22 03:00:00 TS 29.0052 -72.3267 main 712 686 P_____________ AL051864 29.0052 -72.3267 TS 50 0 11 332
1864296N29288 1864 20 NA NA NOT_NAMED 1864-10-22 06:00:00 TS 29.5000 -72.6000 50 hurdat_atl main 686 628 O_____________ hurdat_atl AL051864 29.5000 -72.6000 TS 50 0 11 338
1864296N29288 1864 20 NA NA NOT_NAMED 1864-10-22 09:00:00 TS 29.9849 -72.7804 main 628 576 P_____________ AL051864 29.9849 -72.7804 TS 50 0 10 345
1864296N29288 1864 20 NA NA NOT_NAMED 1864-10-22 12:00:00 TS 30.5000 -72.9000 50 hurdat_atl main 576 525 O_____________ hurdat_atl AL051864 30.5000 -72.9000 TS 50 0 11 350
1864296N29288 1864 20 NA NA NOT_NAMED 1864-10-22 15:00:00 TS 31.0775 -73.0077 main 517 459 P_____________ AL051864 31.0775 -73.0077 TS 50 0 12 352
1864296N29288 1864 20 NA NA NOT_NAMED 1864-10-22 18:00:00 TS 31.7000 -73.1000 50 hurdat_atl main 459 405 O_____________ hurdat_atl AL051864 31.7000 -73.1000 TS 50 0 13 352
1864296N29288 1864 20 NA NA NOT_NAMED 1864-10-22 21:00:00 TS 32.3425 -73.2295 main 405 348 P_____________ AL051864 32.3425 -73.2295 TS 55 0 13 353
1864296N29288 1864 20 NA NA NOT_NAMED 1864-10-23 00:00:00 TS 33.0000 -73.3000 60 hurdat_atl main 348 310 O_____________ hurdat_atl AL051864 33.0000 -73.3000 TS 60 0 13 0
1864296N29288 1864 20 NA NA NOT_NAMED 1864-10-23 03:00:00 TS 33.6574 -73.2599 main 304 274 P_____________ AL051864 33.6574 -73.2599 TS 60 0 13 7
1864296N29288 1864 20 NA NA NOT_NAMED 1864-10-23 06:00:00 TS 34.3000 -73.1000 60 hurdat_atl main 274 252 O_____________ hurdat_atl AL051864 34.3000 -73.1000 TS 60 0 13 14
1864296N29288 1864 20 NA NA NOT_NAMED 1864-10-23 09:00:00 TS 34.8842 -72.9029 main 255 251 P_____________ AL051864 34.8842 -72.9029 TS 65 1 13 22
1864296N29288 1864 20 NA NA NOT_NAMED 1864-10-23 12:00:00 TS 35.5000 -72.5000 70 hurdat_atl main 272 272 O_____________ hurdat_atl AL051864 35.5000 -72.5000 HU 70 1 16 33
1864296N29288 1864 20 NA NA NOT_NAMED 1864-10-23 15:00:00 TS 36.2348 -71.8125 main 335 335 P_____________ AL051864 36.2348 -71.8125 HU 70 1 20 41
1864296N29288 1864 20 NA NA NOT_NAMED 1864-10-23 18:00:00 TS 37.0000 -70.9000 70 hurdat_atl main 396 396 O_____________ hurdat_atl AL051864 37.0000 -70.9000 HU 70 1 21 46
1864296N29288 1864 20 NA NA NOT_NAMED 1864-10-23 21:00:00 TS 37.7298 -69.8946 main 415 377 P_____________ AL051864 37.7298 -69.8946 HU 70 1 22 50
1864296N29288 1864 20 NA NA NOT_NAMED 1864-10-24 00:00:00 TS 38.4000 -68.8000 70 hurdat_atl main 380 354 O_____________ hurdat_atl AL051864 38.4000 -68.8000 HU 70 1 21 54
1864296N29288 1864 20 NA NA NOT_NAMED 1864-10-24 03:00:00 TS 38.9789 -67.7127 main 357 357 P_____________ AL051864 38.9789 -67.7127 HU 70 1 20 57
1864296N29288 1864 20 NA NA NOT_NAMED 1864-10-24 06:00:00 TS 39.5000 -66.6000 70 hurdat_atl main 376 375 O_____________ hurdat_atl AL051864 39.5000 -66.6000 HU 70 1 20 59
1864296N29288 1864 20 NA NA NOT_NAMED 1864-10-24 09:00:00 TS 40.0054 -65.4922 main 389 341 P_____________ AL051864 40.0054 -65.4922 HU 70 1 20 60
1864296N29288 1864 20 NA NA NOT_NAMED 1864-10-24 12:00:00 TS 40.5000 -64.3000 70 hurdat_atl main 343 331 O_____________ hurdat_atl AL051864 40.5000 -64.3000 HU 70 1 22 63
1864296N29288 1864 20 NA NA NOT_NAMED 1864-10-24 15:00:00 TS 41.0019 -62.9527 main 335 335 P_____________ AL051864 41.0019 -62.9527 HU 70 1 23 65
1864296N29288 1864 20 NA NA NOT_NAMED 1864-10-24 18:00:00 TS 41.5000 -61.5000 70 hurdat_atl main 364 O_____________ hurdat_atl AL051864 41.5000 -61.5000 HU 70 1 24 65

About IBTrACS Database

This database is a web-friendly format of International Best Track Archive for Climate Stewardship (IBTrACS), a global best track data archive curated by NOAA dating back to 1842.

Updated: 2021-10-21